CheckWX is a tool to help pilots better visualize weather data.  It is not intended as a substitute for an official pre-flight weather briefing.

12:24:09 UTC

KPSF TAF
Pittsfield Municipal Airport
Pittsfield, Massachusetts, USA
KPSF 221123Z 2212/2312 05015G23KT 6SM -RA BR SCT006 OVC020 TEMPO 2212/2215 2SM -SNRA BR BKN006 FM221500 36014G24KT 1SM -SN BR OVC006 FM222100 31013G26KT 3SM -SNRA BR SCT006 OVC015 FM230000 30018G28KT 3/4SM -SN BR BKN006 OVC012 FM230400 30021G35KT 1SM -SN BR OVC006

Mar-22@
12:00 UTC

Mar-22 @ 12:00 UTC

Mar-22@
15:00 UTC

Mar-22 @ 15:00 UTC

KPSF 221123Z 2212/2312 05015G23KT 6SM -RA BR SCT006 OVC020
Wind
  • 050° at 15 KTS
  • {Gusting to 23 KTS
Conditions
Light Rain, Mist
Cloud Levels
  • Scattered at 600' AGL
  • Overcast at 2,000' AGL

Mar-22@
12:00 UTC

Mar-22 @ 12:00 UTC

Mar-22@
15:00 UTC

Mar-22 @ 15:00 UTC

TEMPO 2212/2215 2SM -SNRA BR BKN006

Temporary

Temporary Changes expected for less than half the time period

Conditions
Light Snow, Light Rain, Mist
Cloud Levels
  • Broken at 600' AGL

Mar-22@
15:00 UTC

Mar-22 @ 15:00 UTC

Mar-22@
21:00 UTC

Mar-22 @ 21:00 UTC

FM221500 36014G24KT 1SM -SN BR OVC006

From

From Standard forecast or significant change

Wind
  • 360° at 14 KTS
  • {Gusting to 24 KTS
Conditions
Light Snow, Mist
Cloud Levels
  • Overcast at 600' AGL

Mar-22@
21:00 UTC

Mar-22 @ 21:00 UTC

Mar-23@
00:00 UTC

Mar-23 @ 00:00 UTC

FM222100 31013G26KT 3SM -SNRA BR SCT006 OVC015

From

From Standard forecast or significant change

Wind
  • 310° at 13 KTS
  • {Gusting to 26 KTS
Conditions
Light Snow, Light Rain, Mist
Cloud Levels
  • Scattered at 600' AGL
  • Overcast at 1,500' AGL

Mar-23@
00:00 UTC

Mar-23 @ 00:00 UTC

Mar-23@
04:00 UTC

Mar-23 @ 04:00 UTC

FM230000 30018G28KT 3/4SM -SN BR BKN006 OVC012

From

From Standard forecast or significant change

Wind
  • 300° at 18 KTS
  • {Gusting to 28 KTS
Conditions
Light Snow, Mist
Cloud Levels
  • Broken at 600' AGL
  • Overcast at 1,200' AGL

Mar-23@
04:00 UTC

Mar-23 @ 04:00 UTC

Mar-23@
12:00 UTC

Mar-23 @ 12:00 UTC

FM230400 30021G35KT 1SM -SN BR OVC006

From

From Standard forecast or significant change

Wind
  • 300° at 21 KTS
  • {Gusting to 35 KTS
Conditions
Light Snow, Mist
Cloud Levels
  • Overcast at 600' AGL